createdAt,value
2022-12-03T00:00:36.089Z,35.50
2022-12-03T00:03:05.080Z,37.58
2022-12-03T00:05:33.807Z,37.03
2022-12-03T00:08:02.560Z,37.72
2022-12-03T00:10:31.469Z,35.67
2022-12-03T00:13:03.922Z,36.42
2022-12-03T00:15:32.713Z,34.67
2022-12-03T00:18:01.910Z,32.97
2022-12-03T00:20:30.608Z,35.60
2022-12-03T00:22:59.269Z,35.20
2022-12-03T00:25:27.954Z,33.03
2022-12-03T00:28:15.000Z,39.55
2022-12-03T00:30:47.020Z,38.03
2022-12-03T00:33:21.634Z,34.60
2022-12-03T00:35:57.582Z,36.55
2022-12-03T00:38:28.532Z,31.40
2022-12-03T00:40:57.080Z,36.35
2022-12-03T00:43:26.094Z,36.22
2022-12-03T00:45:58.447Z,36.10
2022-12-03T00:48:33.035Z,34.10
2022-12-03T00:51:02.763Z,35.30
2022-12-03T00:53:35.783Z,35.00
2022-12-03T00:56:07.383Z,34.65
2022-12-03T00:58:37.979Z,32.67
2022-12-03T01:01:24.195Z,34.35
2022-12-03T01:04:05.635Z,37.10
2022-12-03T01:06:37.555Z,35.10
2022-12-03T01:09:09.525Z,34.28
2022-12-03T01:11:44.481Z,34.20
2022-12-03T01:14:16.800Z,36.40
2022-12-03T01:16:48.580Z,33.28
2022-12-03T01:19:22.484Z,35.63
2022-12-03T01:21:54.175Z,34.42
2022-12-03T01:24:25.687Z,34.25
2022-12-03T01:26:57.940Z,34.75
2022-12-03T01:29:31.000Z,32.08
2022-12-03T01:32:19.541Z,35.88
2022-12-03T01:34:48.895Z,31.40
2022-12-03T01:37:17.399Z,33.10
2022-12-03T01:39:45.976Z,33.92
2022-12-03T01:42:17.686Z,35.28
2022-12-03T01:44:46.864Z,30.50
2022-12-03T01:47:18.323Z,35.50
2022-12-03T01:49:48.352Z,39.30
2022-12-03T01:52:17.747Z,34.20
2022-12-03T01:54:48.555Z,38.80
2022-12-03T01:57:27.976Z,37.25
2022-12-03T01:59:57.432Z,37.33
2022-12-03T02:02:28.186Z,32.38
2022-12-03T02:04:57.091Z,33.63
2022-12-03T02:07:30.237Z,35.13
2022-12-03T02:09:59.703Z,33.50
2022-12-03T02:12:30.597Z,35.78
2022-12-03T02:15:00.299Z,35.83
2022-12-03T02:17:30.256Z,34.58
2022-12-03T02:19:59.273Z,36.35
2022-12-03T02:22:36.156Z,32.20
2022-12-03T02:25:13.807Z,31.40
2022-12-03T02:27:42.433Z,33.80
2022-12-03T02:30:11.869Z,30.83
2022-12-03T02:32:40.498Z,31.77
2022-12-03T02:35:14.675Z,30.35
2022-12-03T02:37:44.005Z,31.65
2022-12-03T02:40:17.085Z,33.28
2022-12-03T02:42:45.455Z,33.28
2022-12-03T02:45:15.691Z,33.15
2022-12-03T02:47:46.381Z,32.03
2022-12-03T02:50:16.553Z,33.60
2022-12-03T02:52:48.642Z,32.65
2022-12-03T02:55:19.415Z,33.80
2022-12-03T02:57:49.564Z,34.70
2022-12-03T03:00:22.515Z,33.95
2022-12-03T03:02:51.865Z,36.43
2022-12-03T03:05:22.267Z,34.22
2022-12-03T03:07:54.162Z,35.33
2022-12-03T03:10:25.822Z,33.67
2022-12-03T03:12:56.105Z,34.30
2022-12-03T03:15:26.294Z,34.25
2022-12-03T03:17:54.971Z,33.25
2022-12-03T03:20:25.311Z,35.88
2022-12-03T03:22:54.328Z,34.17
2022-12-03T03:25:24.979Z,34.33
2022-12-03T03:27:55.140Z,31.98
2022-12-03T03:30:23.797Z,35.90
2022-12-03T03:32:52.714Z,35.17
2022-12-03T03:35:21.555Z,31.63
2022-12-03T03:37:50.835Z,31.60
2022-12-03T03:40:19.567Z,32.95
2022-12-03T03:42:50.157Z,33.67
2022-12-03T03:45:21.639Z,32.55
2022-12-03T03:47:54.380Z,33.90
2022-12-03T03:50:23.009Z,34.15
2022-12-03T03:52:51.722Z,29.77
2022-12-03T03:55:20.811Z,29.92
2022-12-03T03:57:51.072Z,34.25
2022-12-03T04:00:20.326Z,31.88
2022-12-03T04:02:48.954Z,30.17
2022-12-03T04:05:18.543Z,31.80
2022-12-03T04:07:47.102Z,32.50
2022-12-03T04:10:32.891Z,29.67
2022-12-03T04:13:04.816Z,30.77
2022-12-03T04:15:34.160Z,30.75
2022-12-03T04:18:19.937Z,34.03
2022-12-03T04:20:48.571Z,28.20
2022-12-03T04:23:16.326Z,31.90
2022-12-03T04:26:02.288Z,34.75
2022-12-03T04:28:59.620Z,39.47
2022-12-03T04:31:45.787Z,33.03
2022-12-03T04:34:31.872Z,35.53
2022-12-03T04:37:00.404Z,32.95
2022-12-03T04:39:28.926Z,36.15
2022-12-03T04:41:57.700Z,31.70
2022-12-03T04:44:39.750Z,29.08
2022-12-03T04:47:09.719Z,31.48
2022-12-03T04:49:38.955Z,33.13
2022-12-03T04:52:07.985Z,36.53
2022-12-03T04:54:36.600Z,30.60
2022-12-03T04:57:05.970Z,33.08
2022-12-03T04:59:39.472Z,33.28
2022-12-03T05:02:08.712Z,31.33
2022-12-03T05:04:40.522Z,35.33
2022-12-03T05:07:09.079Z,31.33
2022-12-03T05:09:37.856Z,32.15
2022-12-03T05:12:06.949Z,35.83
2022-12-03T05:14:39.862Z,32.88
2022-12-03T05:17:08.706Z,31.53
2022-12-03T05:19:59.996Z,32.75
2022-12-03T05:22:29.111Z,34.00
2022-12-03T05:24:59.384Z,35.65
2022-12-03T05:27:28.020Z,32.63
2022-12-03T05:29:58.277Z,31.35
2022-12-03T05:32:26.854Z,30.98
2022-12-03T05:34:55.911Z,32.55
2022-12-03T05:37:25.030Z,32.10
2022-12-03T05:39:56.735Z,34.58
2022-12-03T05:42:42.820Z,34.95
2022-12-03T05:45:13.557Z,31.33
2022-12-03T05:47:42.085Z,33.42
2022-12-03T05:50:11.773Z,32.85
2022-12-03T05:52:40.295Z,32.00
2022-12-03T05:55:09.479Z,35.17
2022-12-03T05:57:38.092Z,37.53
2022-12-03T06:00:07.901Z,31.92
2022-12-03T06:02:38.560Z,30.15
2022-12-03T06:05:07.758Z,31.17
2022-12-03T06:07:36.437Z,29.90
2022-12-03T06:10:05.057Z,30.50
2022-12-03T06:12:33.689Z,28.98
2022-12-03T06:15:05.739Z,31.83
2022-12-03T06:17:34.846Z,30.90
2022-12-03T06:20:05.832Z,33.53
2022-12-03T06:22:34.558Z,30.35
2022-12-03T06:25:06.649Z,29.83
2022-12-03T06:27:36.780Z,31.42
2022-12-03T06:30:06.393Z,31.10
2022-12-03T06:32:35.238Z,29.52
2022-12-03T06:35:05.567Z,30.48
2022-12-03T06:37:34.211Z,33.28
2022-12-03T06:40:04.228Z,34.45
2022-12-03T06:42:32.657Z,32.53
2022-12-03T06:45:01.244Z,38.75
2022-12-03T06:47:29.720Z,36.58
2022-12-03T06:49:58.349Z,39.40
2022-12-03T06:52:28.895Z,39.90
2022-12-03T06:54:57.590Z,38.45
2022-12-03T06:57:26.406Z,33.25
2022-12-03T06:59:55.240Z,31.80
2022-12-03T07:02:24.111Z,31.63
2022-12-03T07:04:53.157Z,32.75
2022-12-03T07:07:21.952Z,28.77
2022-12-03T07:09:52.014Z,34.45
2022-12-03T07:12:20.767Z,31.27
2022-12-03T07:14:49.368Z,34.85
2022-12-03T07:17:17.988Z,29.77
2022-12-03T07:19:46.610Z,32.25
2022-12-03T07:22:15.402Z,31.80
2022-12-03T07:24:43.891Z,32.83
2022-12-03T07:27:14.312Z,31.75
2022-12-03T07:29:42.875Z,35.35
2022-12-03T07:32:11.750Z,31.20
2022-12-03T07:34:40.328Z,32.05
2022-12-03T07:37:08.965Z,29.83
2022-12-03T07:39:37.669Z,31.55
2022-12-03T07:42:06.359Z,32.60
2022-12-03T07:44:39.264Z,34.20
2022-12-03T07:47:07.849Z,34.57
2022-12-03T07:49:36.359Z,30.58
2022-12-03T07:52:04.914Z,29.63
2022-12-03T07:54:33.471Z,32.05
2022-12-03T07:57:02.162Z,30.02
2022-12-03T07:59:31.438Z,30.73
2022-12-03T08:02:02.768Z,29.50
2022-12-03T08:04:32.673Z,32.75
2022-12-03T08:07:02.630Z,30.80
2022-12-03T08:09:31.654Z,29.92
2022-12-03T08:12:03.201Z,32.63
2022-12-03T08:14:32.989Z,28.08
2022-12-03T08:17:05.763Z,33.55
2022-12-03T08:19:34.563Z,32.22
2022-12-03T08:22:06.289Z,27.48
2022-12-03T08:24:47.455Z,26.92
2022-12-03T08:27:20.724Z,30.27
2022-12-03T08:29:54.407Z,30.00
2022-12-03T08:32:33.480Z,28.98
2022-12-03T08:35:20.272Z,31.52
2022-12-03T08:37:52.487Z,27.60
2022-12-03T08:40:35.912Z,30.95
2022-12-03T08:43:16.931Z,31.05
2022-12-03T08:45:55.618Z,27.05
2022-12-03T08:48:32.998Z,27.33
2022-12-03T08:51:04.666Z,31.58
2022-12-03T08:53:38.622Z,38.92
2022-12-03T08:56:08.842Z,34.63
2022-12-03T08:58:41.802Z,30.42
2022-12-03T09:01:29.296Z,31.40
2022-12-03T09:04:01.729Z,31.23
2022-12-03T09:06:31.723Z,29.17
2022-12-03T09:09:06.384Z,29.52
2022-12-03T09:11:39.939Z,33.78
2022-12-03T09:14:25.059Z,29.88
2022-12-03T09:16:57.158Z,26.83
2022-12-03T09:19:34.356Z,33.65
2022-12-03T09:22:05.868Z,30.00
2022-12-03T09:24:37.892Z,30.33
2022-12-03T09:27:09.466Z,31.10
2022-12-03T09:29:41.218Z,29.45
2022-12-03T09:32:18.092Z,27.02
2022-12-03T09:34:53.751Z,26.23
2022-12-03T09:37:25.696Z,29.50
2022-12-03T09:40:02.144Z,77.57
2022-12-03T09:42:36.586Z,38.20
2022-12-03T09:45:25.854Z,30.38
2022-12-03T09:47:57.464Z,28.17
2022-12-03T09:50:34.835Z,32.92
2022-12-03T09:53:07.509Z,31.10
2022-12-03T09:55:37.165Z,31.80
2022-12-03T09:58:11.802Z,30.23
2022-12-03T10:00:49.451Z,25.77
2022-12-03T10:03:28.184Z,27.98
2022-12-03T10:06:18.141Z,30.08
2022-12-03T10:09:02.984Z,32.45
2022-12-03T10:11:36.740Z,29.42
2022-12-03T10:14:08.093Z,27.85
2022-12-03T10:16:41.475Z,26.13
2022-12-03T10:19:21.026Z,26.05
2022-12-03T10:21:51.063Z,25.85
2022-12-03T10:24:30.103Z,26.77
2022-12-03T10:27:01.131Z,26.52
2022-12-03T10:29:35.191Z,26.73
2022-12-03T10:32:04.372Z,25.52
2022-12-03T10:34:36.056Z,25.27
2022-12-03T10:37:12.630Z,26.95
2022-12-03T10:40:01.196Z,24.48
2022-12-03T10:42:38.955Z,27.27
2022-12-03T10:45:14.301Z,24.33
2022-12-03T10:47:42.773Z,23.70
2022-12-03T10:50:17.779Z,23.20
2022-12-03T10:52:46.791Z,24.40
2022-12-03T10:55:19.798Z,23.75
2022-12-03T10:58:02.102Z,22.38
2022-12-03T11:00:30.584Z,25.80
2022-12-03T11:03:13.708Z,24.33
2022-12-03T11:05:43.602Z,25.37
2022-12-03T11:08:19.289Z,25.15
2022-12-03T11:11:00.111Z,26.85
2022-12-03T11:13:29.874Z,24.27
2022-12-03T11:16:03.183Z,22.35
2022-12-03T11:18:52.811Z,24.63
2022-12-03T11:21:23.483Z,24.20
2022-12-03T11:24:06.716Z,27.63
2022-12-03T11:26:56.766Z,25.13
2022-12-03T11:29:42.699Z,24.20
2022-12-03T11:32:19.268Z,23.63
2022-12-03T11:34:50.994Z,26.35
2022-12-03T11:37:33.838Z,23.75
2022-12-03T11:40:09.831Z,25.75
2022-12-03T11:42:56.489Z,32.90
2022-12-03T11:45:35.709Z,25.42
2022-12-03T11:48:21.371Z,25.20
2022-12-03T11:50:56.971Z,23.55
2022-12-03T11:53:31.224Z,24.08
2022-12-03T11:56:09.100Z,25.98
2022-12-03T11:58:41.167Z,26.98
2022-12-03T12:01:19.883Z,26.23
2022-12-03T12:03:50.347Z,28.13
2022-12-03T12:06:24.434Z,22.50
2022-12-03T12:08:59.752Z,23.05
2022-12-03T12:11:29.034Z,24.25
2022-12-03T12:14:04.221Z,23.77
2022-12-03T12:16:43.876Z,24.38
2022-12-03T12:19:34.913Z,22.80
2022-12-03T12:22:19.202Z,21.90
2022-12-03T12:24:54.561Z,22.65
2022-12-03T12:27:28.347Z,21.73
2022-12-03T12:39:33.739Z,23.55
2022-12-03T12:42:02.376Z,23.52
2022-12-03T12:44:35.100Z,24.65
2022-12-03T12:47:07.878Z,25.05
2022-12-03T12:49:41.716Z,18.02
2022-12-03T12:54:42.933Z,20.90
2022-12-03T12:57:15.681Z,21.40
2022-12-03T12:59:46.934Z,20.00
2022-12-03T13:02:38.678Z,21.42
2022-12-03T13:05:07.777Z,20.10
2022-12-03T13:07:45.173Z,18.13
2022-12-03T13:10:33.971Z,22.13
2022-12-03T13:13:17.692Z,19.85
2022-12-03T13:15:49.070Z,19.42
2022-12-03T13:18:28.450Z,17.83
2022-12-03T13:20:57.217Z,19.55
2022-12-03T13:23:34.808Z,20.30
2022-12-03T13:26:22.282Z,19.05
2022-12-03T13:28:55.569Z,18.92
2022-12-03T13:31:34.371Z,20.38
2022-12-03T13:34:15.137Z,17.08
2022-12-03T13:36:51.979Z,20.90
2022-12-03T13:39:29.250Z,25.23
2022-12-03T13:42:15.332Z,21.17
2022-12-03T13:44:49.574Z,20.20
2022-12-03T13:47:22.796Z,19.60
2022-12-03T13:49:54.893Z,17.92
2022-12-03T13:52:31.184Z,19.00
2022-12-03T13:55:04.329Z,24.33
2022-12-03T13:57:32.851Z,23.65
2022-12-03T14:00:04.021Z,20.08
2022-12-03T14:03:11.010Z,16.42
2022-12-03T14:05:42.282Z,24.00
2022-12-03T14:08:14.172Z,22.77
2022-12-03T14:10:47.212Z,26.67
2022-12-03T14:13:19.176Z,37.97
2022-12-03T14:15:51.658Z,25.08
2022-12-03T14:18:21.622Z,22.40
2022-12-03T14:20:51.781Z,21.38
2022-12-03T14:23:22.941Z,24.05
2022-12-03T14:25:51.650Z,24.25
2022-12-03T14:28:20.133Z,19.13
2022-12-03T14:30:50.304Z,22.02
2022-12-03T14:33:23.914Z,19.23
2022-12-03T14:35:58.806Z,18.90
2022-12-03T14:38:28.384Z,18.67
2022-12-03T14:40:59.349Z,17.98
2022-12-03T14:43:30.207Z,17.13
2022-12-03T14:46:05.697Z,14.93
2022-12-03T14:48:38.496Z,19.02
2022-12-03T14:51:07.201Z,17.60
2022-12-03T14:53:37.925Z,16.27
2022-12-03T14:56:09.491Z,15.88
2022-12-03T14:58:38.083Z,17.98
2022-12-03T15:01:08.291Z,15.50
2022-12-03T15:03:40.073Z,17.35
2022-12-03T15:06:11.606Z,15.60
2022-12-03T15:08:44.862Z,19.52
2022-12-03T15:11:13.440Z,14.85
2022-12-03T15:13:42.274Z,17.23
2022-12-03T15:16:15.320Z,15.05
2022-12-03T15:18:43.967Z,15.98
2022-12-03T15:21:13.959Z,14.70
2022-12-03T15:23:42.521Z,14.23
2022-12-03T15:26:14.128Z,15.27
2022-12-03T15:28:48.369Z,14.68
2022-12-03T15:31:19.064Z,12.93
2022-12-03T15:33:47.868Z,12.77
2022-12-03T15:36:16.940Z,14.00
2022-12-03T15:38:45.653Z,11.57
2022-12-03T15:41:29.428Z,13.88
2022-12-03T15:44:11.729Z,13.98
2022-12-03T15:46:43.384Z,12.60
2022-12-03T15:49:11.912Z,12.30
2022-12-03T15:51:40.332Z,14.73
2022-12-03T15:54:08.836Z,14.77
2022-12-03T15:56:37.872Z,13.80
2022-12-03T15:59:06.716Z,12.35
2022-12-03T16:01:35.714Z,11.88
2022-12-03T16:04:07.051Z,11.88
2022-12-03T16:06:35.932Z,13.55
2022-12-03T16:09:04.384Z,13.25
2022-12-03T16:11:32.963Z,13.23
2022-12-03T16:14:01.963Z,14.32
2022-12-03T16:16:30.547Z,15.25
2022-12-03T16:18:59.116Z,14.15
2022-12-03T16:21:29.367Z,12.57
2022-12-03T16:23:58.444Z,12.40
2022-12-03T16:26:27.019Z,13.45
2022-12-03T16:28:55.540Z,13.38
2022-12-03T16:31:24.207Z,15.23
2022-12-03T16:33:52.751Z,16.10
2022-12-03T16:36:21.278Z,13.18
2022-12-03T16:38:51.244Z,14.23
2022-12-03T16:41:20.072Z,11.75
2022-12-03T16:43:48.749Z,12.30
2022-12-03T16:46:26.093Z,12.50
2022-12-03T16:48:55.652Z,11.50
2022-12-03T16:51:24.338Z,13.25
2022-12-03T16:53:54.918Z,15.07
2022-12-03T16:56:23.548Z,13.60
2022-12-03T16:58:52.157Z,20.17
2022-12-03T17:01:20.932Z,17.85
2022-12-03T17:03:49.466Z,19.13
2022-12-03T17:06:17.899Z,14.80
2022-12-03T17:08:49.664Z,12.32
2022-12-03T17:11:20.496Z,14.10
2022-12-03T17:13:49.375Z,18.73
2022-12-03T17:16:18.064Z,13.65
2022-12-03T17:18:46.727Z,13.98
2022-12-03T17:21:15.297Z,16.70
2022-12-03T17:23:44.807Z,13.98
2022-12-03T17:26:14.564Z,15.18
2022-12-03T17:28:44.457Z,12.93
2022-12-03T17:31:13.104Z,11.95
2022-12-03T17:33:42.087Z,12.73
2022-12-03T17:36:11.052Z,14.35
2022-12-03T17:38:39.794Z,13.90
2022-12-03T17:41:10.134Z,13.40
2022-12-03T17:43:38.618Z,15.68
2022-12-03T17:46:08.977Z,14.90
2022-12-03T17:48:37.733Z,16.08
2022-12-03T17:51:06.407Z,13.65
2022-12-03T17:53:34.895Z,12.63
2022-12-03T17:56:03.880Z,12.70
2022-12-03T17:58:32.365Z,12.50
2022-12-03T18:01:03.082Z,11.07
2022-12-03T18:03:33.927Z,13.18
2022-12-03T18:06:02.609Z,12.73
2022-12-03T18:08:31.255Z,14.18
2022-12-03T18:11:00.346Z,14.43
2022-12-03T18:13:29.215Z,12.10
2022-12-03T18:15:57.873Z,13.73
2022-12-03T18:18:26.663Z,11.57
2022-12-03T18:21:09.475Z,13.00
2022-12-03T18:23:40.997Z,14.52
2022-12-03T18:26:10.444Z,12.55
2022-12-03T18:28:41.384Z,12.15
2022-12-03T18:31:12.718Z,12.65
2022-12-03T18:33:41.496Z,13.32
2022-12-03T18:39:23.180Z,11.93
2022-12-03T18:41:53.368Z,10.98
2022-12-03T18:44:23.312Z,13.43
2022-12-03T18:46:53.902Z,12.63
2022-12-03T18:49:27.085Z,13.40
2022-12-03T18:52:01.142Z,12.00
2022-12-03T18:54:36.470Z,12.45
2022-12-03T18:57:09.044Z,15.25
2022-12-03T18:59:39.641Z,16.10
2022-12-03T19:03:00.639Z,15.13
2022-12-03T19:05:17.512Z,11.77
2022-12-03T19:07:52.739Z,12.23
2022-12-03T19:10:30.965Z,13.40
2022-12-03T19:13:05.022Z,13.32
2022-12-03T19:15:39.340Z,13.48
2022-12-03T19:18:08.567Z,14.43
2022-12-03T19:20:44.557Z,12.70
2022-12-03T19:23:19.301Z,12.55
2022-12-03T19:26:01.456Z,12.23
2022-12-03T19:28:30.433Z,14.93
2022-12-03T19:30:59.755Z,13.32
2022-12-03T19:33:29.775Z,14.85
2022-12-03T19:35:58.946Z,14.70
2022-12-03T19:38:37.684Z,14.88
2022-12-03T19:41:20.157Z,14.88
2022-12-03T19:43:56.814Z,13.35
2022-12-03T19:46:26.899Z,14.98
2022-12-03T19:48:55.894Z,14.60
2022-12-03T19:51:36.327Z,13.45
2022-12-03T19:54:05.436Z,13.57
2022-12-03T19:56:36.211Z,13.27
2022-12-03T19:59:34.771Z,12.38
2022-12-03T20:02:07.782Z,13.20
2022-12-03T20:04:36.551Z,14.98
2022-12-03T20:07:09.437Z,13.57
2022-12-03T20:09:38.171Z,13.87
2022-12-03T20:12:14.089Z,12.77
2022-12-03T20:14:42.754Z,14.02
2022-12-03T20:17:11.423Z,15.07
2022-12-03T20:19:39.989Z,15.65
2022-12-03T20:22:13.965Z,15.55
2022-12-03T20:24:45.470Z,15.70
2022-12-03T20:27:22.857Z,14.95
2022-12-03T20:29:51.905Z,14.68
2022-12-03T20:32:20.799Z,13.23
2022-12-03T20:34:51.165Z,13.98
2022-12-03T20:37:22.246Z,16.05
2022-12-03T20:40:21.834Z,14.82
2022-12-03T20:42:56.842Z,16.02
2022-12-03T20:45:29.558Z,14.90
2022-12-03T20:48:02.729Z,15.10
2022-12-03T20:50:37.577Z,14.02
2022-12-03T20:53:25.154Z,14.18
2022-12-03T20:55:57.256Z,13.80
2022-12-03T20:58:32.329Z,13.18
2022-12-03T21:01:15.383Z,14.90
2022-12-03T21:03:45.855Z,13.77
2022-12-03T21:06:14.562Z,13.68
2022-12-03T21:08:44.548Z,16.30
2022-12-03T21:11:15.481Z,15.38
2022-12-03T21:13:47.978Z,14.05
2022-12-03T21:16:18.639Z,13.55
2022-12-03T21:18:47.610Z,14.13
2022-12-03T21:21:17.310Z,14.73
2022-12-03T21:23:48.988Z,14.65
2022-12-03T21:26:19.292Z,13.45
2022-12-03T21:28:54.669Z,15.88
2022-12-03T21:31:26.654Z,15.60
2022-12-03T21:33:55.572Z,20.08
2022-12-03T21:36:25.247Z,26.27
2022-12-03T21:38:56.025Z,22.67
2022-12-03T21:41:29.979Z,21.52
2022-12-03T21:44:00.159Z,16.02
2022-12-03T21:47:11.088Z,19.10
2022-12-03T21:49:20.460Z,17.85
2022-12-03T21:51:53.708Z,19.20
2022-12-03T21:54:24.006Z,17.48
2022-12-03T21:56:54.400Z,16.52
2022-12-03T21:59:24.519Z,14.63
2022-12-03T22:01:53.704Z,15.25
2022-12-03T22:04:22.488Z,15.52
2022-12-03T22:06:54.361Z,15.48
2022-12-03T22:09:26.410Z,14.10
2022-12-03T22:12:06.098Z,17.83
2022-12-03T22:14:37.474Z,12.43
2022-12-03T22:17:06.188Z,15.50
2022-12-03T22:19:39.737Z,16.95
2022-12-03T22:22:08.551Z,15.70
2022-12-03T22:24:37.351Z,15.20
2022-12-03T22:27:06.120Z,15.13
2022-12-03T22:29:40.026Z,18.02
2022-12-03T22:32:11.699Z,19.35
2022-12-03T22:34:42.532Z,17.65
2022-12-03T22:37:11.705Z,16.02
2022-12-03T22:39:40.302Z,15.20
2022-12-03T22:42:09.058Z,18.30
2022-12-03T22:44:43.820Z,19.02
2022-12-03T22:47:12.557Z,18.00
2022-12-03T22:49:46.941Z,17.85
2022-12-03T22:52:18.696Z,14.80
2022-12-03T22:54:49.633Z,15.68
2022-12-03T22:57:22.521Z,17.98
2022-12-03T22:59:59.698Z,17.30
2022-12-03T23:02:28.428Z,17.65
2022-12-03T23:04:59.673Z,15.90
2022-12-03T23:07:40.768Z,16.67
2022-12-03T23:10:11.011Z,16.48
2022-12-03T23:12:47.107Z,16.33
2022-12-03T23:15:18.617Z,16.05
2022-12-03T23:17:51.122Z,15.30
2022-12-03T23:20:21.680Z,15.82
2022-12-03T23:22:56.916Z,16.83
2022-12-03T23:25:31.104Z,18.15
2022-12-03T23:28:01.489Z,17.45
2022-12-03T23:30:32.715Z,15.88
2022-12-03T23:33:07.211Z,17.25
2022-12-03T23:35:45.444Z,17.33
2022-12-03T23:38:19.573Z,18.00
2022-12-03T23:41:03.414Z,15.68
2022-12-03T23:43:50.972Z,18.17
2022-12-03T23:46:24.073Z,18.08
2022-12-03T23:48:55.954Z,14.40
2022-12-03T23:51:31.914Z,15.98
2022-12-03T23:54:04.844Z,18.30
2022-12-03T23:56:35.380Z,15.03
2022-12-03T23:59:12.696Z,14.63
